Time;durP1;ratioP1;P1;durP2;ratioP2;P2;SDS_P1;SDS_P2;PMS_P1;PMS_P2;Temp;Humidity;BMP_temperature;BMP_pressure;BME280_temperature;BME280_humidity;BME280_pressure;Samples;Min_cycle;Max_cycle;Signal;HPM_P1;HPM_P2
2021/04/17 00:00:10;;;;;;;15.90;8.35;;;;;;;4.74;63.66;101494.04;1795122;79;25604;-57
2021/04/17 00:02:44;;;;;;;21.97;9.68;;;;;;;4.74;63.79;101494.04;1795124;79;25679;-57
2021/04/17 00:05:14;;;;;;;15.63;8.20;;;;;;;4.76;64.22;101494.34;1795288;79;25734;-56
2021/04/17 00:07:41;;;;;;;14.65;8.50;;;;;;;4.78;64.26;101494.28;1795308;79;25737;-57
2021/04/17 00:10:11;;;;;;;11.28;7.78;;;;;;;4.65;64.30;101470.08;1795316;79;28406;-56
2021/04/17 00:12:39;;;;;;;13.98;7.65;;;;;;;4.85;64.46;101497.86;1795184;79;25783;-57
2021/04/17 00:15:10;;;;;;;12.70;7.90;;;;;;;4.87;64.58;101499.13;1795330;79;25694;-56
2021/04/17 00:17:38;;;;;;;16.55;7.97;;;;;;;4.87;64.23;101500.47;1795282;79;25653;-57
2021/04/17 00:20:07;;;;;;;18.37;9.40;;;;;;;4.84;64.22;101496.62;1795152;79;25622;-57
2021/04/17 00:22:35;;;;;;;17.12;9.10;;;;;;;4.82;63.97;101502.49;1796692;79;28502;-57
2021/04/17 00:25:05;;;;;;;19.25;9.85;;;;;;;4.79;63.74;101500.02;1798511;79;25636;-57
2021/04/17 00:27:34;;;;;;;13.50;8.35;;;;;;;4.72;63.44;101499.91;1798638;79;25786;-57
2021/04/17 00:30:04;;;;;;;14.15;7.97;;;;;;;4.66;63.34;101505.97;1731694;82;25679;-56
2021/04/17 00:32:32;;;;;;;17.15;8.30;;;;;;;4.58;63.07;101502.84;1807475;79;25930;-56
2021/04/17 00:35:00;;;;;;;12.80;8.58;;;;;;;4.52;63.09;101502.69;1807549;79;27512;-57
2021/04/17 00:37:27;;;;;;;12.70;8.23;;;;;;;4.47;63.00;101502.08;1738697;82;25726;-57
2021/04/17 00:39:56;;;;;;;15.98;7.97;;;;;;;4.41;62.96;101504.19;1764502;80;25696;-57
2021/04/17 00:42:25;;;;;;;15.50;8.43;;;;;;;4.33;62.91;101507.22;1768150;80;25681;-57
2021/04/17 00:44:54;;;;;;;19.40;8.65;;;;;;;4.25;62.93;101513.41;1744130;82;25787;-57
2021/04/17 00:47:22;;;;;;;13.98;7.17;;;;;;;4.15;62.83;101507.70;1743980;80;27524;-56
2021/04/17 00:49:52;;;;;;;17.45;9.05;;;;;;;4.07;63.03;101508.06;1742648;80;25652;-56
2021/04/17 00:52:21;;;;;;;15.18;8.35;;;;;;;3.98;63.03;101506.73;1743962;80;25731;-58
2021/04/17 00:54:51;;;;;;;13.45;7.58;;;;;;;3.89;63.25;101507.19;1754490;80;25776;-56
2021/04/17 00:57:20;;;;;;;13.70;7.70;;;;;;;3.83;63.40;101510.12;1759472;80;25716;-56
2021/04/17 00:59:48;;;;;;;14.73;8.23;;;;;;;3.75;63.57;101519.34;1759389;81;27532;-57
2021/04/17 01:02:24;;;;;;;13.43;7.87;;;;;;;3.71;63.70;101514.24;1759446;81;25756;-57
2021/04/17 01:04:55;;;;;;;18.07;7.97;;;;;;;3.64;64.03;101518.14;1759461;80;25609;-57
2021/04/17 01:07:28;;;;;;;13.55;8.55;;;;;;;3.61;64.21;101516.49;1730024;81;26449;-57
2021/04/17 01:10:10;;;;;;;11.97;7.10;;;;;;;3.59;65.15;101517.87;1759199;81;25706;-57
2021/04/17 01:12:48;;;;;;;8.63;6.22;;;;;;;3.58;64.96;101515.30;1759450;81;27519;-58
2021/04/17 01:15:17;;;;;;;16.77;7.20;;;;;;;3.59;65.15;101508.56;1759199;80;25649;-56
2021/04/17 01:17:49;;;;;;;11.00;7.28;;;;;;;3.58;65.41;101511.30;1759523;80;25510;-56
2021/04/17 01:20:51;;;;;;;10.65;6.62;;;;;;;3.59;65.85;101515.22;1759608;81;25646;-56
2021/04/17 01:23:41;;;;;;;13.50;7.42;;;;;;;3.60;66.18;101509.44;1759486;80;25926;-56
2021/04/17 01:26:19;;;;;;;11.48;7.30;;;;;;;3.60;66.82;101515.61;1759487;81;28377;-56
2021/04/17 01:28:55;;;;;;;11.28;6.67;;;;;;;3.59;66.75;101513.03;1759360;81;26319;-56
2021/04/17 01:31:31;;;;;;;13.08;7.40;;;;;;;3.56;66.57;101515.83;1754856;80;25706;-56
2021/04/17 01:34:01;;;;;;;13.90;7.47;;;;;;;3.53;66.94;101515.52;1751897;81;25635;-56
2021/04/17 01:36:33;;;;;;;9.28;6.97;;;;;;;3.51;66.54;101512.53;1751812;80;25768;-57
2021/04/17 01:39:11;;;;;;;12.28;6.70;;;;;;;3.51;66.71;101523.17;1751678;81;27015;-57
2021/04/17 01:41:51;;;;;;;10.55;6.30;;;;;;;3.49;66.42;101517.94;1767383;80;26048;-56
2021/04/17 01:44:29;;;;;;;11.57;7.35;;;;;;;3.48;66.19;101522.86;1690312;83;25658;-56
2021/04/17 01:47:02;;;;;;;11.75;7.33;;;;;;;3.50;66.34;101524.11;1687596;85;25784;-57
2021/04/17 01:49:33;;;;;;;13.83;6.60;;;;;;;3.51;66.26;101507.22;1687605;85;26056;-57
2021/04/17 01:52:03;;;;;;;15.63;6.55;;;;;;;3.47;66.01;101508.28;1687539;85;27553;-57
2021/04/17 01:54:43;;;;;;;15.10;7.20;;;;;;;3.41;65.79;101502.78;1703610;83;26117;-57
2021/04/17 01:57:18;;;;;;;12.78;7.75;;;;;;;3.39;65.97;101511.32;1735540;81;25666;-56
2021/04/17 01:59:48;;;;;;;17.42;7.12;;;;;;;3.34;65.75;101514.64;1743386;81;26459;-56
2021/04/17 02:02:16;;;;;;;13.53;7.50;;;;;;;3.28;65.74;101511.34;1769480;81;26110;-56
2021/04/17 02:04:45;;;;;;;9.10;6.95;;;;;;;3.25;65.79;101517.27;1749166;82;27609;-56
2021/04/17 02:07:14;;;;;;;12.90;6.95;;;;;;;3.19;65.62;101518.41;1766468;81;25794;-56
2021/04/17 02:09:42;;;;;;;12.80;8.13;;;;;;;3.07;65.65;101513.19;1749100;82;25731;-56
2021/04/17 02:12:11;;;;;;;10.53;7.03;;;;;;;3.00;65.61;101523.71;1766331;81;25552;-56
2021/04/17 02:14:39;;;;;;;17.77;9.18;;;;;;;2.93;65.67;101519.58;1749145;82;25777;-56
2021/04/17 02:17:27;;;;;;;11.85;7.97;;;;;;;2.82;65.65;101514.27;1766080;81;27555;-56
2021/04/17 02:20:14;;;;;;;12.73;7.67;;;;;;;2.81;65.99;101515.23;1749084;82;26265;-57
2021/04/17 02:22:44;;;;;;;10.95;7.08;;;;;;;2.79;66.17;101521.52;1766441;81;25675;-56
2021/04/17 02:25:13;;;;;;;12.68;7.05;;;;;;;2.70;66.79;101524.57;1749028;82;25715;-57
2021/04/17 02:27:42;;;;;;;12.20;7.75;;;;;;;2.67;68.00;101522.92;1766484;81;26071;-57
2021/04/17 02:30:11;;;;;;;10.50;7.50;;;;;;;2.59;67.14;101518.41;1749119;82;27541;-57
2021/04/17 02:32:39;;;;;;;12.80;8.28;;;;;;;2.57;67.72;101515.83;1756417;81;25759;-57
2021/04/17 02:35:09;;;;;;;9.50;6.70;;;;;;;2.57;67.76;101522.47;1801119;79;25617;-57
2021/04/17 02:37:37;;;;;;;11.03;6.75;;;;;;;2.60;67.94;101518.80;1801038;79;26230;-56
2021/04/17 02:40:07;;;;;;;15.13;7.83;;;;;;;2.64;68.19;101523.92;1784622;79;25733;-57
2021/04/17 02:42:35;;;;;;;16.50;8.40;;;;;;;2.68;68.25;101523.32;1762412;81;27527;-57
2021/04/17 02:45:06;;;;;;;12.23;8.13;;;;;;;2.70;68.26;101521.91;1762057;80;25652;-57
2021/04/17 02:47:34;;;;;;;11.53;7.25;;;;;;;2.69;68.57;101528.19;1762230;80;25548;-56
2021/04/17 02:50:03;;;;;;;10.75;7.12;;;;;;;2.66;68.23;101522.52;1762075;80;25764;-57
2021/04/17 02:52:31;;;;;;;10.85;7.12;;;;;;;2.70;68.55;101516.60;1762323;81;25735;-56
2021/04/17 02:54:59;;;;;;;14.63;7.33;;;;;;;2.72;68.46;101522.72;1754078;80;27530;-56
2021/04/17 02:57:28;;;;;;;17.90;8.13;;;;;;;2.73;68.44;101524.45;1751187;81;26160;-56
2021/04/17 02:59:55;;;;;;;13.35;7.00;;;;;;;2.75;68.51;101518.13;1751267;80;25585;-56
2021/04/17 03:02:24;;;;;;;10.25;7.22;;;;;;;2.75;68.27;101519.94;1751241;80;26451;-57
2021/04/17 03:04:52;;;;;;;12.00;7.97;;;;;;;2.72;68.06;101523.59;1751261;81;25664;-56
2021/04/17 03:07:20;;;;;;;13.30;6.72;;;;;;;2.72;67.97;101531.57;1755261;79;27539;-56
2021/04/17 03:09:47;;;;;;;10.95;7.30;;;;;;;2.69;67.66;101532.17;1767003;80;25778;-56
2021/04/17 03:12:16;;;;;;;12.25;7.72;;;;;;;2.67;67.61;101530.89;1767199;80;25682;-57
2021/04/17 03:14:44;;;;;;;12.90;7.62;;;;;;;2.63;67.44;101530.16;1767189;81;25640;-56
2021/04/17 03:17:14;;;;;;;15.93;7.83;;;;;;;2.60;67.48;101530.28;1767211;80;26268;-56
2021/04/17 03:19:43;;;;;;;13.75;8.20;;;;;;;2.57;67.31;101527.78;1767203;80;27531;-56
2021/04/17 03:22:11;;;;;;;12.75;8.50;;;;;;;2.53;67.23;101533.28;1767041;79;25884;-56
2021/04/17 03:24:39;;;;;;;15.83;8.55;;;;;;;2.46;67.07;101532.67;1767150;80;25635;-56
2021/04/17 03:27:08;;;;;;;12.82;7.37;;;;;;;2.42;67.14;101538.58;1767153;79;26424;-57
2021/04/17 03:29:36;;;;;;;15.70;8.28;;;;;;;2.40;67.64;101535.60;1767098;80;25738;-57
2021/04/17 03:32:06;;;;;;;10.43;7.15;;;;;;;2.35;67.52;101537.97;1770565;79;27523;-55
2021/04/17 03:34:34;;;;;;;11.90;6.80;;;;;;;2.35;67.66;101543.77;1773608;80;25801;-55
2021/04/17 03:37:02;;;;;;;11.90;8.18;;;;;;;2.39;67.97;101542.69;1773696;80;25712;-55
2021/04/17 03:39:30;;;;;;;13.72;8.48;;;;;;;2.43;68.13;101543.42;1773634;80;25695;-57
2021/04/17 03:41:59;;;;;;;15.72;8.15;;;;;;;2.48;68.33;101539.64;1776890;80;25773;-56
2021/04/17 03:44:27;;;;;;;18.55;9.45;;;;;;;2.53;68.30;101543.44;1684269;83;27605;-56
2021/04/17 03:46:55;;;;;;;23.45;9.03;;;;;;;2.60;68.38;101545.37;1747178;80;26303;-56
2021/04/17 03:49:24;;;;;;;19.80;9.45;;;;;;;2.66;68.47;101537.12;1756582;79;25742;-56
2021/04/17 03:51:52;;;;;;;20.72;9.40;;;;;;;2.72;68.48;101545.30;1773649;80;25696;-57
2021/04/17 03:54:20;;;;;;;16.20;9.45;;;;;;;2.76;68.49;101549.57;1760958;80;25719;-56
2021/04/17 03:56:48;;;;;;;17.90;10.08;;;;;;;2.76;68.53;101545.10;1747188;82;27523;-56
2021/04/17 03:59:17;;;;;;;18.00;10.48;;;;;;;2.82;68.27;101547.96;1747110;80;25721;-57
2021/04/17 04:01:44;;;;;;;19.57;11.55;;;;;;;2.85;67.91;101554.48;1747230;81;25615;-57
2021/04/17 04:04:13;;;;;;;23.45;11.63;;;;;;;2.87;67.68;101558.39;1750400;79;25589;-56
2021/04/17 04:06:41;;;;;;;22.42;13.65;;;;;;;2.89;67.52;101553.88;1773700;80;26047;-57
2021/04/17 04:09:09;;;;;;;21.17;12.63;;;;;;;2.90;67.40;101554.28;1773599;80;28539;-56
2021/04/17 04:11:37;;;;;;;27.07;15.23;;;;;;;2.90;67.43;101559.60;1773611;79;25757;-58
2021/04/17 04:14:05;;;;;;;22.65;13.80;;;;;;;2.85;67.13;101561.12;1773702;79;25724;-58
2021/04/17 04:16:33;;;;;;;28.05;14.50;;;;;;;2.81;67.32;101563.06;1773642;79;25691;-57
2021/04/17 04:19:02;;;;;;;34.08;16.48;;;;;;;2.80;67.42;101563.10;1773661;80;25690;-56
2021/04/17 04:21:30;;;;;;;30.52;14.80;;;;;;;2.77;67.42;101568.09;1773617;79;27591;-56
2021/04/17 04:23:58;;;;;;;31.73;15.63;;;;;;;2.78;67.39;101567.16;1773695;80;25735;-57
2021/04/17 04:26:26;;;;;;;28.23;14.33;;;;;;;2.76;67.19;101565.03;1773666;79;25810;-57
2021/04/17 04:28:54;;;;;;;29.18;13.45;;;;;;;2.78;67.48;101566.31;1773542;79;25770;-57
2021/04/17 04:31:22;;;;;;;33.20;11.95;;;;;;;2.81;67.47;101561.73;1773096;79;25536;-56
2021/04/17 04:33:50;;;;;;;16.85;10.68;;;;;;;2.87;68.30;101570.35;1767073;80;28692;-57
2021/04/17 04:36:18;;;;;;;17.07;10.35;;;;;;;2.92;68.39;101569.22;1767061;80;26063;-57
2021/04/17 04:38:46;;;;;;;25.08;9.70;;;;;;;3.00;68.69;101568.91;1767034;81;25660;-57
2021/04/17 04:41:15;;;;;;;25.37;10.25;;;;;;;3.06;68.50;101569.06;1763277;80;25676;-57
2021/04/17 04:43:43;;;;;;;15.05;9.48;;;;;;;3.16;68.32;101569.55;1684704;83;25786;-57
2021/04/17 04:46:11;;;;;;;20.88;9.63;;;;;;;3.19;68.04;101568.05;1675558;85;27555;-56
2021/04/17 04:48:40;;;;;;;21.23;9.45;;;;;;;3.25;68.26;101569.98;1682952;83;25678;-56
2021/04/17 04:51:10;;;;;;;23.40;9.98;;;;;;;3.36;68.79;101577.46;1704310;81;25690;-58
2021/04/17 04:53:39;;;;;;;27.37;10.75;;;;;;;3.42;68.35;101573.22;1741994;81;25632;-56
2021/04/17 04:56:08;;;;;;;32.40;9.20;;;;;;;3.55;68.32;101568.64;1726984;82;26263;-57
2021/04/17 04:58:36;;;;;;;23.35;8.88;;;;;;;3.65;68.17;101564.62;1695286;84;28460;-56
2021/04/17 05:01:05;;;;;;;23.73;9.40;;;;;;;3.75;68.04;101560.59;1691118;83;25859;-58
2021/04/17 05:03:34;;;;;;;23.67;10.05;;;;;;;3.88;67.92;101569.34;1683447;85;25792;-56
2021/04/17 05:06:01;;;;;;;20.72;9.63;;;;;;;3.98;67.16;101560.43;1683325;85;25693;-56
2021/04/17 05:08:29;;;;;;;32.93;9.93;;;;;;;4.05;66.92;101561.85;1683370;84;26367;-56
2021/04/17 05:10:58;;;;;;;23.18;10.32;;;;;;;4.17;66.76;101561.75;1683254;85;26749;-56
2021/04/17 05:13:26;;;;;;;26.50;10.40;;;;;;;4.26;66.32;101557.75;1683315;83;25521;-56
2021/04/17 05:15:54;;;;;;;27.02;10.20;;;;;;;4.32;65.90;101560.11;1687460;83;25718;-56
2021/04/17 05:18:22;;;;;;;26.80;10.85;;;;;;;4.38;65.58;101563.81;1683274;85;25710;-57
2021/04/17 05:20:50;;;;;;;28.27;10.38;;;;;;;4.44;65.33;101563.98;1683246;83;26138;-57
2021/04/17 05:23:18;;;;;;;20.82;9.40;;;;;;;4.50;65.11;101558.33;1683390;84;27627;-58
2021/04/17 05:25:46;;;;;;;24.25;10.40;;;;;;;4.55;64.92;101565.61;1683152;85;25812;-56
2021/04/17 05:28:15;;;;;;;31.12;11.12;;;;;;;4.60;64.87;101560.93;1683370;85;25477;-57
2021/04/17 05:30:42;;;;;;;29.45;11.00;;;;;;;4.66;64.74;101561.09;1683272;85;25699;-57
2021/04/17 05:33:10;;;;;;;23.65;9.93;;;;;;;4.69;64.52;101557.80;1683199;83;25477;-57
2021/04/17 05:35:38;;;;;;;20.32;10.70;;;;;;;4.75;64.30;101554.41;1683102;85;27613;-57
2021/04/17 05:38:06;;;;;;;27.17;10.55;;;;;;;4.79;64.18;101558.66;1692588;84;25733;-57
2021/04/17 05:40:34;;;;;;;25.90;10.40;;;;;;;4.83;63.60;101553.54;1691267;83;25714;-56
2021/04/17 05:43:03;;;;;;;39.63;10.85;;;;;;;4.86;63.32;101553.39;1712721;83;26538;-56
2021/04/17 05:45:31;;;;;;;20.02;10.25;;;;;;;4.93;63.11;101552.61;1712624;83;25716;-56
2021/04/17 05:47:59;;;;;;;24.63;10.20;;;;;;;4.98;63.03;101545.22;1682979;84;27558;-57
2021/04/17 05:50:28;;;;;;;21.87;9.23;;;;;;;5.06;62.93;101551.48;1712502;83;25697;-57
2021/04/17 05:52:56;;;;;;;24.95;10.25;;;;;;;5.10;62.83;101551.25;1683098;84;25738;-57
2021/04/17 05:55:25;;;;;;;23.00;8.83;;;;;;;5.18;62.60;101556.16;1712560;82;25622;-57
2021/04/17 05:57:53;;;;;;;20.52;5.70;;;;;;;5.29;61.95;101560.45;1694471;82;26133;-57
2021/04/17 06:00:23;;;;;;;6.87;3.90;;;;;;;5.43;60.60;101561.49;1688628;84;27554;-57
2021/04/17 06:02:55;;;;;;;7.70;4.10;;;;;;;5.55;55.63;101559.98;1738030;81;26136;-57
2021/04/17 06:05:24;;;;;;;11.65;6.05;;;;;;;5.69;56.79;101557.41;1738089;82;25686;-57
2021/04/17 06:07:52;;;;;;;9.55;5.03;;;;;;;5.82;55.53;101559.41;1676995;85;26236;-56
2021/04/17 06:10:19;;;;;;;22.50;4.70;;;;;;;5.96;56.07;101559.48;1738059;81;25778;-56
2021/04/17 06:12:48;;;;;;;9.05;4.83;;;;;;;6.08;55.24;101562.83;1676936;85;28296;-56
2021/04/17 06:15:17;;;;;;;9.55;4.35;;;;;;;6.19;54.21;101566.21;1676866;84;25734;-58
2021/04/17 06:17:45;;;;;;;9.30;4.37;;;;;;;6.26;52.88;101566.23;1695689;84;25675;-57
2021/04/17 06:20:14;;;;;;;8.75;4.17;;;;;;;6.32;54.63;101568.19;1763509;81;26440;-57
2021/04/17 06:22:42;;;;;;;7.70;4.45;;;;;;;6.37;53.96;101562.94;1655168;84;25774;-58
2021/04/17 06:25:12;;;;;;;10.65;4.87;;;;;;;6.47;53.02;101573.97;1712899;82;27540;-57
2021/04/17 06:27:40;;;;;;;12.00;4.53;;;;;;;6.57;53.55;101562.25;1669038;85;26092;-57
2021/04/17 06:30:10;;;;;;;9.95;4.67;;;;;;;6.69;52.66;101571.34;1697189;83;25738;-57
2021/04/17 06:32:38;;;;;;;11.22;4.90;;;;;;;6.79;53.28;101569.84;1715222;81;25700;-57
2021/04/17 06:35:09;;;;;;;8.35;4.90;;;;;;;6.86;50.44;101567.19;1751941;81;26174;-56
2021/04/17 06:37:37;;;;;;;13.40;6.37;;;;;;;6.95;51.13;101568.95;1751804;81;28531;-57
2021/04/17 06:40:07;;;;;;;9.73;5.50;;;;;;;7.06;49.93;101567.80;1759045;80;25725;-57
2021/04/17 06:42:40;;;;;;;9.80;5.42;;;;;;;7.17;47.93;101569.34;1758062;79;25729;-56
2021/04/17 06:45:11;;;;;;;24.23;10.18;;;;;;;7.26;48.85;101567.90;1781493;79;25659;-57
2021/04/17 06:47:41;;;;;;;7.37;4.65;;;;;;;7.34;48.76;101564.30;1781090;80;25724;-57
2021/04/17 06:50:11;;;;;;;17.50;7.65;;;;;;;7.45;48.24;101568.97;1780985;79;28491;-57
2021/04/17 06:52:41;;;;;;;21.57;7.10;;;;;;;7.51;48.27;101560.54;1781101;80;25721;-57
2021/04/17 06:55:12;;;;;;;13.45;5.83;;;;;;;7.60;47.12;101565.81;1780492;80;25454;-57
2021/04/17 06:57:41;;;;;;;13.75;5.40;;;;;;;7.67;48.08;101559.09;1782755;80;25655;-57
2021/04/17 07:00:15;;;;;;;12.35;4.60;;;;;;;7.77;49.03;101566.55;1782925;80;26058;-58
2021/04/17 07:02:42;;;;;;;4.97;3.87;;;;;;;7.83;49.22;101563.46;1781756;80;27534;-57
2021/04/17 07:05:12;;;;;;;6.08;4.22;;;;;;;7.89;48.38;101564.39;1781281;80;25621;-57
2021/04/17 07:07:41;;;;;;;5.83;3.77;;;;;;;7.96;46.87;101562.19;1770324;80;25653;-57
2021/04/17 07:10:11;;;;;;;5.53;3.67;;;;;;;8.05;47.45;101562.08;1761282;80;25684;-57
2021/04/17 07:12:39;;;;;;;7.90;3.60;;;;;;;8.12;47.83;101553.52;1770557;80;25714;-57
2021/04/17 07:15:09;;;;;;;6.67;3.90;;;;;;;8.20;44.94;101558.87;1756296;80;28271;-56
2021/04/17 07:17:40;;;;;;;9.30;5.20;;;;;;;8.26;45.97;101556.63;1751777;81;26089;-57
2021/04/17 07:20:13;;;;;;;8.00;5.00;;;;;;;8.36;45.12;101557.36;1751874;81;26260;-57
2021/04/17 07:22:43;;;;;;;6.60;4.53;;;;;;;8.44;44.42;101562.59;1752110;81;25692;-57
2021/04/17 07:25:19;;;;;;;5.42;4.17;;;;;;;8.53;45.13;101558.95;1752038;81;25872;-57
2021/04/17 07:27:51;;;;;;;11.68;4.50;;;;;;;8.63;45.51;101561.39;1764325;80;27600;-57
2021/04/17 07:30:24;;;;;;;10.08;6.22;;;;;;;8.72;44.96;101554.52;1768342;80;25782;-58
2021/04/17 07:33:17;;;;;;;15.08;5.08;;;;;;;8.76;44.39;101552.87;1769776;80;28160;-58
2021/04/17 07:35:52;;;;;;;11.15;5.78;;;;;;;8.84;43.88;101554.16;1786093;80;25663;-58
2021/04/17 07:38:24;;;;;;;12.60;6.08;;;;;;;8.91;44.15;101553.64;1786372;80;25747;-56
2021/04/17 07:41:17;;;;;;;8.78;4.40;;;;;;;9.00;44.24;101550.82;1773554;80;27519;-56
2021/04/17 07:43:54;;;;;;;10.43;4.90;;;;;;;9.10;43.93;101549.68;1760877;80;25504;-57
2021/04/17 07:46:29;;;;;;;11.50;4.47;;;;;;;9.24;43.07;101551.39;1752040;80;25647;-56
2021/04/17 07:49:18;;;;;;;22.35;6.35;;;;;;;9.34;43.34;101547.56;1760298;79;25971;-56
2021/04/17 07:52:01;;;;;;;14.87;4.25;;;;;;;9.49;42.71;101544.27;1781374;80;25737;-56
2021/04/17 07:54:31;;;;;;;12.60;4.45;;;;;;;9.62;43.43;101545.12;1772631;80;28277;-56
2021/04/17 07:57:11;;;;;;;15.15;4.28;;;;;;;9.73;43.89;101539.45;1765114;80;25961;-57
2021/04/17 07:59:42;;;;;;;11.50;4.90;;;;;;;9.86;42.73;101542.95;1765237;81;25628;-56
2021/04/17 08:02:12;;;;;;;14.20;6.58;;;;;;;9.97;43.38;101538.99;1765079;80;25618;-57
2021/04/17 08:04:42;;;;;;;13.78;6.42;;;;;;;10.09;42.44;101535.00;1765004;80;25493;-57
2021/04/17 08:07:11;;;;;;;22.80;6.90;;;;;;;10.15;42.30;101534.06;1765274;81;27523;-57
2021/04/17 08:09:41;;;;;;;10.05;6.45;;;;;;;10.24;43.53;101536.56;1764764;80;25659;-57
2021/04/17 08:12:15;;;;;;;11.75;6.40;;;;;;;10.38;43.65;101534.21;1765206;81;25719;-57
2021/04/17 08:14:44;;;;;;;11.05;5.78;;;;;;;10.54;44.01;101529.00;1765231;80;25731;-58
2021/04/17 08:17:12;;;;;;;10.72;5.87;;;;;;;10.69;44.23;101529.16;1765280;80;25690;-58
2021/04/17 08:19:40;;;;;;;12.93;5.60;;;;;;;10.87;42.97;101524.20;1765187;81;27904;-57
2021/04/17 08:22:08;;;;;;;8.50;5.00;;;;;;;11.02;42.73;101529.34;1765098;80;25683;-57
2021/04/17 08:24:39;;;;;;;10.80;5.05;;;;;;;11.18;41.98;101522.27;1765232;80;26088;-56
2021/04/17 08:27:08;;;;;;;13.53;5.00;;;;;;;11.36;40.79;101523.97;1765207;81;25740;-56
2021/04/17 08:29:50;;;;;;;12.13;4.80;;;;;;;11.50;41.67;101521.52;1764963;80;26098;-57
2021/04/17 08:32:28;;;;;;;12.43;4.85;;;;;;;11.61;40.56;101520.66;1761745;81;27524;-57
2021/04/17 08:35:08;;;;;;;8.88;5.55;;;;;;;11.77;40.48;101522.94;1770003;79;25750;-56
2021/04/17 08:37:57;;;;;;;13.15;5.58;;;;;;;11.96;40.99;101518.27;1775429;79;26190;-56
2021/04/17 08:40:45;;;;;;;15.80;5.15;;;;;;;12.18;41.00;101521.41;1770611;79;26467;-57
2021/04/17 08:43:20;;;;;;;7.50;4.70;;;;;;;12.42;40.94;101517.11;1763315;79;25645;-57
2021/04/17 08:46:17;;;;;;;13.03;5.72;;;;;;;12.66;39.87;101522.77;1742748;80;27040;-57
2021/04/17 08:48:50;;;;;;;10.88;4.90;;;;;;;12.81;38.76;101529.55;1762539;80;26535;-57
2021/04/17 08:51:38;;;;;;;7.67;4.42;;;;;;;12.95;38.45;101515.36;1775915;79;25749;-57
2021/04/17 08:54:11;;;;;;;7.08;4.80;;;;;;;13.09;37.56;101515.47;1782856;78;26577;-56
2021/04/17 08:56:53;;;;;;;9.23;5.30;;;;;;;13.24;37.79;101513.27;1744110;82;26009;-56
2021/04/17 08:59:28;;;;;;;9.20;5.22;;;;;;;13.41;38.12;101509.96;1750758;80;27604;-56
2021/04/17 09:02:02;;;;;;;11.43;4.90;;;;;;;13.67;37.38;101507.27;1736746;82;25831;-57
2021/04/17 09:04:33;;;;;;;13.08;5.35;;;;;;;13.89;37.00;101517.87;1746452;80;25761;-57
2021/04/17 09:07:02;;;;;;;10.13;6.15;;;;;;;14.11;36.86;101510.47;1773015;80;26400;-57
2021/04/17 09:09:33;;;;;;;11.70;6.25;;;;;;;14.33;36.90;101509.34;1712999;82;25671;-57
2021/04/17 09:12:12;;;;;;;17.92;6.75;;;;;;;14.60;37.04;101505.04;1747442;80;27595;-57
2021/04/17 09:14:50;;;;;;;21.05;8.15;;;;;;;14.87;34.46;101504.80;1710673;83;25532;-57
2021/04/17 09:17:38;;;;;;;9.83;6.08;;;;;;;15.01;34.44;101503.00;1695262;84;25738;-57
2021/04/17 09:20:14;;;;;;;12.85;6.28;;;;;;;15.24;34.27;101501.27;1680603;85;25821;-57
2021/04/17 09:22:46;;;;;;;35.10;6.47;;;;;;;15.56;34.99;101489.11;1695303;84;25717;-57
2021/04/17 09:25:18;;;;;;;8.55;5.72;;;;;;;16.01;34.11;101489.27;1712697;82;27535;-57
2021/04/17 09:27:52;;;;;;;14.68;5.75;;;;;;;16.48;33.99;101487.66;1767474;80;25692;-57
2021/04/17 09:30:23;;;;;;;10.45;6.67;;;;;;;16.92;33.37;101487.28;1761465;80;25726;-58
2021/04/17 09:32:58;;;;;;;10.30;6.00;;;;;;;17.54;32.40;101480.31;1772344;80;25808;-56
2021/04/17 09:35:38;;;;;;;8.05;6.45;;;;;;;18.21;31.63;101476.70;1774848;80;25824;-57
2021/04/17 09:38:16;;;;;;;8.03;5.30;;;;;;;18.97;30.13;101480.57;1774547;80;28451;-57
2021/04/17 09:40:53;;;;;;;11.83;5.55;;;;;;;19.70;29.73;101475.83;1765812;80;26072;-57
2021/04/17 09:43:32;;;;;;;5.75;5.08;;;;;;;20.39;29.41;101476.08;1774954;80;25735;-58
2021/04/17 09:46:07;;;;;;;18.57;5.70;;;;;;;20.77;27.38;101470.60;1752640;79;25747;-57
2021/04/17 09:48:41;;;;;;;12.20;5.33;;;;;;;21.17;26.71;101467.09;1743996;82;25542;-57
2021/04/17 09:51:21;;;;;;;13.32;5.60;;;;;;;21.70;25.73;101466.08;1743678;82;27617;-57
2021/04/17 09:53:53;;;;;;;51.48;7.92;;;;;;;21.95;25.67;101461.59;1743750;80;25653;-58
2021/04/17 09:56:33;;;;;;;15.72;6.00;;;;;;;22.28;23.51;101451.46;1766392;80;25400;-57
2021/04/17 09:59:15;;;;;;;10.82;5.87;;;;;;;22.32;24.18;101455.52;1766491;79;26411;-57
2021/04/17 10:01:56;;;;;;;9.35;4.55;;;;;;;22.83;25.70;101449.80;1774093;80;26023;-57
2021/04/17 10:04:59;;;;;;;6.10;5.37;;;;;;;23.41;24.40;101455.52;1772000;80;27511;-57
2021/04/17 10:07:26;;;;;;;22.75;5.53;;;;;;;23.75;22.50;101454.27;1743872;82;26426;-57
2021/04/17 10:10:05;;;;;;;7.42;4.97;;;;;;;23.91;22.56;101450.27;1710631;83;25752;-57
2021/04/17 10:12:48;;;;;;;7.90;5.12;;;;;;;24.13;22.44;101453.70;1695169;84;26380;-57
2021/04/17 10:15:25;;;;;;;20.72;5.50;;;;;;;24.23;22.60;101440.39;1710473;83;25767;-57
2021/04/17 10:17:57;;;;;;;13.90;4.58;;;;;;;24.73;22.78;101441.88;1710635;82;27542;-57
2021/04/17 10:20:28;;;;;;;12.68;5.00;;;;;;;25.26;21.14;101435.34;1707667;84;25597;-57
2021/04/17 10:23:01;;;;;;;6.67;4.95;;;;;;;25.35;21.12;101435.09;1743632;81;25925;-57
2021/04/17 10:25:45;;;;;;;6.87;4.83;;;;;;;25.47;21.42;101441.66;1754157;79;25845;-57
2021/04/17 10:28:23;;;;;;;7.20;4.53;;;;;;;25.77;20.14;101432.80;1775066;80;25713;-57
2021/04/17 10:30:56;;;;;;;12.30;5.50;;;;;;;26.15;19.71;101435.20;1775260;79;27510;-57
2021/04/17 10:33:29;;;;;;;11.30;5.97;;;;;;;26.47;19.42;101430.48;1775202;79;25674;-57
2021/04/17 10:36:02;;;;;;;12.43;4.85;;;;;;;26.85;19.65;101427.25;1767232;80;25668;-58
2021/04/17 10:38:36;;;;;;;13.78;4.85;;;;;;;27.12;18.42;101422.80;1766926;80;27851;-57
2021/04/17 10:41:06;;;;;;;10.58;4.15;;;;;;;27.31;19.22;101427.23;1762749;80;25722;-57
2021/04/17 10:43:35;;;;;;;8.48;4.22;;;;;;;27.72;18.98;101417.88;1703317;83;28471;-57
2021/04/17 10:46:06;;;;;;;8.35;4.47;;;;;;;28.17;18.20;101414.33;1708239;83;25698;-57
2021/04/17 10:48:44;;;;;;;5.37;3.72;;;;;;;28.29;18.65;101423.46;1708407;83;25702;-57
2021/04/17 10:51:16;;;;;;;8.50;4.17;;;;;;;27.91;17.81;101421.95;1708335;82;25757;-58
2021/04/17 10:53:48;;;;;;;4.83;4.30;;;;;;;27.87;17.80;101416.06;1699715;84;26443;-58
2021/04/17 10:56:19;;;;;;;8.53;3.93;;;;;;;27.68;17.88;101414.44;1700492;83;27543;-58
2021/04/17 10:59:00;;;;;;;6.78;3.67;;;;;;;27.88;18.12;101415.50;1700339;84;25469;-59
2021/04/17 11:01:36;;;;;;;11.25;3.87;;;;;;;28.37;17.87;101416.22;1675297;85;25771;-57
2021/04/17 11:04:05;;;;;;;13.80;3.65;;;;;;;28.65;17.34;101422.92;1683239;85;26063;-59
2021/04/17 11:06:39;;;;;;;7.50;3.80;;;;;;;28.86;16.60;101424.28;1683314;83;26089;-59
2021/04/17 11:09:10;;;;;;;10.45;3.83;;;;;;;29.08;16.90;101415.30;1701937;82;28460;-57
2021/04/17 11:11:57;;;;;;;4.53;3.10;;;;;;;29.18;16.51;101416.91;1702787;84;25760;-58
2021/04/17 11:14:28;;;;;;;9.00;2.95;;;;;;;29.15;16.58;101418.77;1702985;84;25704;-57
2021/04/17 11:16:57;;;;;;;4.30;3.12;;;;;;;29.41;15.83;101415.16;1702766;84;25665;-57
2021/04/17 11:19:34;;;;;;;8.00;3.30;;;;;;;29.55;16.27;101412.92;1702656;84;25506;-57
2021/04/17 11:22:25;;;;;;;6.55;3.02;;;;;;;29.80;15.40;101412.55;1702793;82;27547;-57
2021/04/17 11:25:04;;;;;;;9.23;3.20;;;;;;;29.84;15.71;101410.13;1702871;84;25838;-57
2021/04/17 11:27:34;;;;;;;21.25;4.65;;;;;;;30.06;15.68;101406.09;1702345;83;25669;-57
2021/04/17 11:30:07;;;;;;;7.78;3.40;;;;;;;30.48;15.39;101400.63;1702842;83;25692;-57
2021/04/17 11:32:37;;;;;;;6.17;2.67;;;;;;;29.89;15.03;101403.83;1702825;84;25714;-57
2021/04/17 11:35:09;;;;;;;15.30;3.25;;;;;;;28.76;15.76;101410.73;1702518;82;27549;-57
2021/04/17 11:37:37;;;;;;;6.62;3.20;;;;;;;29.15;15.87;101404.09;1702853;83;25523;-57
2021/04/17 11:40:08;;;;;;;3.47;2.90;;;;;;;29.51;15.50;101396.51;1704781;82;25721;-57
2021/04/17 11:42:37;;;;;;;9.55;2.80;;;;;;;29.33;15.74;101403.08;1689169;83;26649;-60
2021/04/17 11:45:07;;;;;;;6.05;2.75;;;;;;;28.29;16.07;101399.95;1711867;82;26340;-58